Terminal Aerodrome Forecast
Issued by NWS Milwaukee/Sullivan, WI

Home | Current Version | Previous Version | Text Only | Print | Product List | Glossary On
Versions: 1 2 3 4 5 6 7 8 9 10 11 12 13 14 15 16 17 18 19 20 21 22 23 24 25 26 27
000
FTUS43 KMKX 280918 AAA
TAFMSN
TAF AMD
KMSN 280918Z 2809/2906 33004KT 5SM BR BKN009
     FM281400 35007KT P6SM SCT008 OVC012
     FM281600 36009KT P6SM VCSH SCT015 OVC025
     FM282100 02011G20KT P6SM SCT020 OVC035
     FM282200 02012G21KT P6SM SCT015 BKN050
     FM290100 01007KT P6SM SCT030 BKN120=

USA.gov is the U.S. government's official web portal to all federal, state and local government web resources and services.